TimeEDT,TemperatureF,Dew PointF,Humidity,Sea Level PressureIn,VisibilityMPH,Wind Direction,Wind SpeedMPH,Gust SpeedMPH,PrecipitationIn,Events,Conditions,WindDirDegrees,DateUTC
12:51 AM,46.9,37.9,71,29.99,10.0,WSW,8.1,-,N/A,,Mostly Cloudy,240,2012-10-21 04:51:00
1:51 AM,46.0,37.9,73,30.00,10.0,WSW,5.8,-,N/A,,Clear,240,2012-10-21 05:51:00
2:51 AM,44.1,39.0,82,30.01,10.0,West,4.6,-,N/A,,Mostly Cloudy,260,2012-10-21 06:51:00
3:51 AM,45.0,39.0,80,30.03,10.0,WSW,6.9,-,N/A,,Overcast,250,2012-10-21 07:51:00
4:51 AM,45.0,39.0,80,30.05,10.0,WSW,6.9,-,N/A,,Overcast,240,2012-10-21 08:51:00
5:51 AM,44.6,39.2,81,30.04,10.0,WSW,5.8,-,N/A,,Overcast,250,2012-10-21 09:51:00
6:51 AM,44.1,39.0,82,30.10,10.0,West,5.8,-,N/A,,Mostly Cloudy,260,2012-10-21 10:51:00
7:51 AM,43.0,39.0,86,30.12,10.0,West,5.8,-,N/A,,Mostly Cloudy,260,2012-10-21 11:51:00
8:51 AM,44.6,39.2,81,30.10,10.0,WSW,4.6,-,N/A,,Mostly Cloudy,250,2012-10-21 12:51:00
9:51 AM,46.9,39.9,77,30.14,10.0,WSW,6.9,-,N/A,,Mostly Cloudy,250,2012-10-21 13:51:00
10:51 AM,48.9,41.0,74,30.16,10.0,West,5.8,-,N/A,,Mostly Cloudy,270,2012-10-21 14:51:00
11:51 AM,55.0,36.0,49,30.15,10.0,WNW,8.1,16.1,N/A,,Scattered Clouds,290,2012-10-21 15:51:00
12:51 PM,57.0,35.1,44,30.14,10.0,WNW,13.8,19.6,N/A,,Scattered Clouds,290,2012-10-21 16:51:00
2:51 PM,57.0,35.1,44,30.12,10.0,WNW,5.8,-,N/A,,Mostly Cloudy,300,2012-10-21 18:51:00
3:51 PM,57.0,35.1,44,30.13,10.0,Calm,Calm,-,N/A,,Mostly Cloudy,0,2012-10-21 19:51:00
4:51 PM,57.9,36.0,44,30.12,10.0,West,10.4,-,N/A,,Partly Cloudy,280,2012-10-21 20:51:00
5:51 PM,57.0,35.1,44,30.12,10.0,WSW,4.6,-,N/A,,Partly Cloudy,240,2012-10-21 21:51:00
7:51 PM,52.0,37.0,57,30.14,10.0,SW,4.6,-,N/A,,Clear,230,2012-10-21 23:51:00
8:51 PM,50.0,37.0,61,30.15,10.0,Calm,Calm,-,N/A,,Clear,0,2012-10-22 00:51:00
9:51 PM,48.0,37.0,66,30.17,10.0,Calm,Calm,-,N/A,,Clear,0,2012-10-22 01:51:00
10:51 PM,44.6,37.4,76,30.13,10.0,Calm,Calm,-,N/A,,Partly Cloudy,0,2012-10-22 02:51:00
11:51 PM,45.0,37.0,74,30.18,10.0,Calm,Calm,-,N/A,,Partly Cloudy,0,2012-10-22 03:51:00